sensor_id;sensor_type;location;lat;lon;timestamp;temperature;humidity
19019;DHT22;9642;50.842;4.348;2022-08-19T00:01:45;22.60;98.40
19019;DHT22;9642;50.842;4.348;2022-08-19T00:04:13;22.50;98.50
19019;DHT22;9642;50.842;4.348;2022-08-19T00:06:42;22.50;99.00
19019;DHT22;9642;50.842;4.348;2022-08-19T00:09:10;22.40;98.90
19019;DHT22;9642;50.842;4.348;2022-08-19T00:11:37;22.30;99.00
19019;DHT22;9642;50.842;4.348;2022-08-19T00:14:07;22.30;99.40
19019;DHT22;9642;50.842;4.348;2022-08-19T00:16:35;22.20;99.80
19019;DHT22;9642;50.842;4.348;2022-08-19T00:19:02;22.20;99.80
19019;DHT22;9642;50.842;4.348;2022-08-19T00:21:28;22.20;99.80
19019;DHT22;9642;50.842;4.348;2022-08-19T00:23:55;22.30;99.80
19019;DHT22;9642;50.842;4.348;2022-08-19T00:26:25;22.30;99.80
19019;DHT22;9642;50.842;4.348;2022-08-19T00:28:51;22.20;99.90
19019;DHT22;9642;50.842;4.348;2022-08-19T00:31:17;22.20;99.90
19019;DHT22;9642;50.842;4.348;2022-08-19T00:33:43;22.10;99.90
19019;DHT22;9642;50.842;4.348;2022-08-19T00:36:10;22.10;99.90
19019;DHT22;9642;50.842;4.348;2022-08-19T00:38:37;21.90;99.90
19019;DHT22;9642;50.842;4.348;2022-08-19T00:41:05;21.90;99.90
19019;DHT22;9642;50.842;4.348;2022-08-19T00:43:31;22.00;99.90
19019;DHT22;9642;50.842;4.348;2022-08-19T00:45:57;21.90;99.90
19019;DHT22;9642;50.842;4.348;2022-08-19T00:48:23;22.00;99.90
19019;DHT22;9642;50.842;4.348;2022-08-19T00:50:50;21.90;99.90
19019;DHT22;9642;50.842;4.348;2022-08-19T00:53:22;21.90;99.90
19019;DHT22;9642;50.842;4.348;2022-08-19T00:55:50;21.90;99.90
19019;DHT22;9642;50.842;4.348;2022-08-19T00:58:19;21.90;99.90
19019;DHT22;9642;50.842;4.348;2022-08-19T01:00:47;21.90;99.90
19019;DHT22;9642;50.842;4.348;2022-08-19T01:03:19;22.00;99.90
19019;DHT22;9642;50.842;4.348;2022-08-19T01:05:45;21.90;99.90
19019;DHT22;9642;50.842;4.348;2022-08-19T01:08:15;21.90;99.90
19019;DHT22;9642;50.842;4.348;2022-08-19T01:10:48;21.80;99.90
19019;DHT22;9642;50.842;4.348;2022-08-19T01:13:21;21.80;99.90
19019;DHT22;9642;50.842;4.348;2022-08-19T01:16:03;21.70;99.90
19019;DHT22;9642;50.842;4.348;2022-08-19T01:18:30;21.60;99.90
19019;DHT22;9642;50.842;4.348;2022-08-19T01:23:44;21.60;99.90
19019;DHT22;9642;50.842;4.348;2022-08-19T01:26:14;21.60;99.90
19019;DHT22;9642;50.842;4.348;2022-08-19T01:28:41;21.60;99.90
19019;DHT22;9642;50.842;4.348;2022-08-19T01:31:15;21.50;99.90
19019;DHT22;9642;50.842;4.348;2022-08-19T01:33:42;21.50;99.90
19019;DHT22;9642;50.842;4.348;2022-08-19T01:36:11;21.50;99.90
19019;DHT22;9642;50.842;4.348;2022-08-19T01:38:40;21.50;99.90
19019;DHT22;9642;50.842;4.348;2022-08-19T01:41:09;21.50;99.90
19019;DHT22;9642;50.842;4.348;2022-08-19T01:43:36;21.40;99.90
19019;DHT22;9642;50.842;4.348;2022-08-19T01:46:03;21.20;99.90
19019;DHT22;9642;50.842;4.348;2022-08-19T01:48:47;21.20;99.90
19019;DHT22;9642;50.842;4.348;2022-08-19T01:51:14;21.20;99.90
19019;DHT22;9642;50.842;4.348;2022-08-19T01:53:40;21.20;99.90
19019;DHT22;9642;50.842;4.348;2022-08-19T01:56:07;21.20;99.90
19019;DHT22;9642;50.842;4.348;2022-08-19T01:58:39;21.10;99.90
19019;DHT22;9642;50.842;4.348;2022-08-19T02:01:07;21.20;99.90
19019;DHT22;9642;50.842;4.348;2022-08-19T02:03:42;21.10;99.90
19019;DHT22;9642;50.842;4.348;2022-08-19T02:06:08;21.10;99.90
19019;DHT22;9642;50.842;4.348;2022-08-19T02:08:36;21.10;99.90
19019;DHT22;9642;50.842;4.348;2022-08-19T02:11:03;21.00;99.90
19019;DHT22;9642;50.842;4.348;2022-08-19T02:13:29;21.00;99.90
19019;DHT22;9642;50.842;4.348;2022-08-19T02:15:55;20.90;99.90
19019;DHT22;9642;50.842;4.348;2022-08-19T02:18:21;20.90;99.90
19019;DHT22;9642;50.842;4.348;2022-08-19T02:20:47;21.00;99.90
19019;DHT22;9642;50.842;4.348;2022-08-19T02:23:14;20.90;99.90
19019;DHT22;9642;50.842;4.348;2022-08-19T02:25:42;20.80;99.90
19019;DHT22;9642;50.842;4.348;2022-08-19T02:28:08;20.70;99.90
19019;DHT22;9642;50.842;4.348;2022-08-19T02:30:34;20.60;99.90
19019;DHT22;9642;50.842;4.348;2022-08-19T02:33:00;20.50;99.90
19019;DHT22;9642;50.842;4.348;2022-08-19T02:35:26;20.40;99.90
19019;DHT22;9642;50.842;4.348;2022-08-19T02:37:51;20.50;99.90
19019;DHT22;9642;50.842;4.348;2022-08-19T02:40:36;20.30;99.90
19019;DHT22;9642;50.842;4.348;2022-08-19T02:43:07;20.30;99.90
19019;DHT22;9642;50.842;4.348;2022-08-19T02:45:38;20.30;99.90
19019;DHT22;9642;50.842;4.348;2022-08-19T02:48:06;20.30;99.90
19019;DHT22;9642;50.842;4.348;2022-08-19T02:50:32;20.30;99.90
19019;DHT22;9642;50.842;4.348;2022-08-19T02:52:58;20.30;99.90
19019;DHT22;9642;50.842;4.348;2022-08-19T02:55:24;20.30;99.90
19019;DHT22;9642;50.842;4.348;2022-08-19T02:57:49;20.30;99.90
19019;DHT22;9642;50.842;4.348;2022-08-19T03:00:16;20.30;99.90
19019;DHT22;9642;50.842;4.348;2022-08-19T03:02:42;20.20;99.90
19019;DHT22;9642;50.842;4.348;2022-08-19T03:05:09;20.10;99.90
19019;DHT22;9642;50.842;4.348;2022-08-19T03:07:36;20.10;99.90
19019;DHT22;9642;50.842;4.348;2022-08-19T03:10:03;20.00;99.90
19019;DHT22;9642;50.842;4.348;2022-08-19T03:12:29;20.00;99.90
19019;DHT22;9642;50.842;4.348;2022-08-19T03:14:55;19.90;99.90
19019;DHT22;9642;50.842;4.348;2022-08-19T03:17:21;19.90;99.90
19019;DHT22;9642;50.842;4.348;2022-08-19T03:19:47;19.80;99.90
19019;DHT22;9642;50.842;4.348;2022-08-19T03:22:13;19.70;99.90
19019;DHT22;9642;50.842;4.348;2022-08-19T03:24:39;19.70;99.90
19019;DHT22;9642;50.842;4.348;2022-08-19T03:27:06;19.70;99.90
19019;DHT22;9642;50.842;4.348;2022-08-19T03:29:32;19.70;99.90
19019;DHT22;9642;50.842;4.348;2022-08-19T03:32:04;19.80;99.90
19019;DHT22;9642;50.842;4.348;2022-08-19T03:34:31;19.70;99.90
19019;DHT22;9642;50.842;4.348;2022-08-19T03:37:03;19.70;99.90
19019;DHT22;9642;50.842;4.348;2022-08-19T03:39:33;19.70;99.90
19019;DHT22;9642;50.842;4.348;2022-08-19T03:41:59;19.70;99.90
19019;DHT22;9642;50.842;4.348;2022-08-19T03:44:28;19.50;99.90
19019;DHT22;9642;50.842;4.348;2022-08-19T03:47:07;19.30;99.90
19019;DHT22;9642;50.842;4.348;2022-08-19T03:49:33;19.30;99.90
19019;DHT22;9642;50.842;4.348;2022-08-19T03:52:01;19.30;99.90
19019;DHT22;9642;50.842;4.348;2022-08-19T03:54:30;19.20;99.90
19019;DHT22;9642;50.842;4.348;2022-08-19T03:56:57;19.10;99.90
19019;DHT22;9642;50.842;4.348;2022-08-19T03:59:28;19.20;99.90
19019;DHT22;9642;50.842;4.348;2022-08-19T04:01:57;19.10;99.90
19019;DHT22;9642;50.842;4.348;2022-08-19T04:04:24;19.10;99.90
19019;DHT22;9642;50.842;4.348;2022-08-19T04:06:50;19.10;99.90
19019;DHT22;9642;50.842;4.348;2022-08-19T04:09:20;19.10;99.90
19019;DHT22;9642;50.842;4.348;2022-08-19T04:11:49;19.00;99.90
19019;DHT22;9642;50.842;4.348;2022-08-19T04:14:21;18.90;99.90
19019;DHT22;9642;50.842;4.348;2022-08-19T04:16:48;18.80;99.90
19019;DHT22;9642;50.842;4.348;2022-08-19T04:19:15;18.80;99.90
19019;DHT22;9642;50.842;4.348;2022-08-19T04:21:45;18.80;99.90
19019;DHT22;9642;50.842;4.348;2022-08-19T04:24:13;18.90;99.90
19019;DHT22;9642;50.842;4.348;2022-08-19T04:26:39;18.90;99.90
19019;DHT22;9642;50.842;4.348;2022-08-19T04:29:08;18.90;99.90
19019;DHT22;9642;50.842;4.348;2022-08-19T04:31:35;18.70;99.90
19019;DHT22;9642;50.842;4.348;2022-08-19T04:34:04;18.60;99.90
19019;DHT22;9642;50.842;4.348;2022-08-19T04:36:34;18.60;99.90
19019;DHT22;9642;50.842;4.348;2022-08-19T04:39:04;18.60;99.90
19019;DHT22;9642;50.842;4.348;2022-08-19T04:41:30;18.60;99.90
19019;DHT22;9642;50.842;4.348;2022-08-19T04:44:15;18.60;99.90
19019;DHT22;9642;50.842;4.348;2022-08-19T04:46:44;18.60;99.90
19019;DHT22;9642;50.842;4.348;2022-08-19T04:49:11;18.60;99.90
19019;DHT22;9642;50.842;4.348;2022-08-19T04:51:45;18.70;99.90
19019;DHT22;9642;50.842;4.348;2022-08-19T04:54:13;18.70;99.90
19019;DHT22;9642;50.842;4.348;2022-08-19T04:56:40;18.70;99.90
19019;DHT22;9642;50.842;4.348;2022-08-19T04:59:06;18.80;99.90
19019;DHT22;9642;50.842;4.348;2022-08-19T05:01:33;18.90;99.90
19019;DHT22;9642;50.842;4.348;2022-08-19T05:04:03;19.00;99.90
19019;DHT22;9642;50.842;4.348;2022-08-19T05:06:31;19.00;99.90
19019;DHT22;9642;50.842;4.348;2022-08-19T05:09:08;19.00;99.90
19019;DHT22;9642;50.842;4.348;2022-08-19T05:11:36;19.00;99.90
19019;DHT22;9642;50.842;4.348;2022-08-19T05:14:09;19.00;99.90
19019;DHT22;9642;50.842;4.348;2022-08-19T05:16:44;19.00;99.90
19019;DHT22;9642;50.842;4.348;2022-08-19T05:19:10;19.00;99.90
19019;DHT22;9642;50.842;4.348;2022-08-19T05:21:54;19.10;99.90
19019;DHT22;9642;50.842;4.348;2022-08-19T05:24:44;19.00;99.90
19019;DHT22;9642;50.842;4.348;2022-08-19T05:27:10;19.00;99.90
19019;DHT22;9642;50.842;4.348;2022-08-19T05:29:35;19.00;99.90
19019;DHT22;9642;50.842;4.348;2022-08-19T05:32:04;19.10;99.90
19019;DHT22;9642;50.842;4.348;2022-08-19T05:34:39;19.20;99.90
19019;DHT22;9642;50.842;4.348;2022-08-19T05:37:05;19.30;99.90
19019;DHT22;9642;50.842;4.348;2022-08-19T05:39:41;19.30;99.90
19019;DHT22;9642;50.842;4.348;2022-08-19T05:42:10;19.20;99.90
19019;DHT22;9642;50.842;4.348;2022-08-19T05:44:40;19.20;99.90
19019;DHT22;9642;50.842;4.348;2022-08-19T05:47:16;19.10;99.90
19019;DHT22;9642;50.842;4.348;2022-08-19T05:49:45;19.10;99.90
19019;DHT22;9642;50.842;4.348;2022-08-19T05:52:13;19.20;99.90
19019;DHT22;9642;50.842;4.348;2022-08-19T05:54:41;19.20;99.90
19019;DHT22;9642;50.842;4.348;2022-08-19T05:57:09;19.30;99.90
19019;DHT22;9642;50.842;4.348;2022-08-19T05:59:35;19.40;99.90
19019;DHT22;9642;50.842;4.348;2022-08-19T06:02:03;19.50;99.90
19019;DHT22;9642;50.842;4.348;2022-08-19T06:04:33;19.60;99.90
19019;DHT22;9642;50.842;4.348;2022-08-19T06:06:59;19.60;99.90
19019;DHT22;9642;50.842;4.348;2022-08-19T06:09:26;19.50;99.90
19019;DHT22;9642;50.842;4.348;2022-08-19T06:11:56;19.60;99.90
19019;DHT22;9642;50.842;4.348;2022-08-19T06:14:28;19.60;99.90
19019;DHT22;9642;50.842;4.348;2022-08-19T06:16:54;19.60;99.90
19019;DHT22;9642;50.842;4.348;2022-08-19T06:19:22;19.60;99.90
19019;DHT22;9642;50.842;4.348;2022-08-19T06:21:50;19.90;99.90
19019;DHT22;9642;50.842;4.348;2022-08-19T06:24:20;20.20;99.90
19019;DHT22;9642;50.842;4.348;2022-08-19T06:26:47;20.20;99.90
19019;DHT22;9642;50.842;4.348;2022-08-19T06:29:15;20.30;99.90
19019;DHT22;9642;50.842;4.348;2022-08-19T06:31:45;20.30;99.90
19019;DHT22;9642;50.842;4.348;2022-08-19T06:34:11;20.50;99.90
19019;DHT22;9642;50.842;4.348;2022-08-19T06:36:42;20.60;99.90
19019;DHT22;9642;50.842;4.348;2022-08-19T06:39:23;20.70;99.90
19019;DHT22;9642;50.842;4.348;2022-08-19T06:41:52;20.90;99.90
19019;DHT22;9642;50.842;4.348;2022-08-19T06:44:22;21.00;99.90
19019;DHT22;9642;50.842;4.348;2022-08-19T06:46:51;21.00;99.90
19019;DHT22;9642;50.842;4.348;2022-08-19T06:49:17;20.90;99.90
19019;DHT22;9642;50.842;4.348;2022-08-19T06:51:46;20.90;99.90
19019;DHT22;9642;50.842;4.348;2022-08-19T06:54:17;20.70;99.90
19019;DHT22;9642;50.842;4.348;2022-08-19T06:56:44;20.50;99.90
19019;DHT22;9642;50.842;4.348;2022-08-19T06:59:13;20.40;99.90
19019;DHT22;9642;50.842;4.348;2022-08-19T07:01:46;20.50;99.90
19019;DHT22;9642;50.842;4.348;2022-08-19T07:04:15;20.60;99.90
19019;DHT22;9642;50.842;4.348;2022-08-19T07:06:42;20.70;99.90
19019;DHT22;9642;50.842;4.348;2022-08-19T07:09:10;20.60;99.90
19019;DHT22;9642;50.842;4.348;2022-08-19T07:11:36;20.60;99.90
19019;DHT22;9642;50.842;4.348;2022-08-19T07:14:02;20.60;99.90
19019;DHT22;9642;50.842;4.348;2022-08-19T07:16:29;20.40;99.90
19019;DHT22;9642;50.842;4.348;2022-08-19T07:18:55;20.40;99.90
19019;DHT22;9642;50.842;4.348;2022-08-19T07:21:27;20.30;99.90
19019;DHT22;9642;50.842;4.348;2022-08-19T07:23:55;20.40;99.90
19019;DHT22;9642;50.842;4.348;2022-08-19T07:26:33;20.60;99.90
19019;DHT22;9642;50.842;4.348;2022-08-19T07:29:06;20.70;99.90
19019;DHT22;9642;50.842;4.348;2022-08-19T07:31:32;20.80;99.90
19019;DHT22;9642;50.842;4.348;2022-08-19T07:34:07;20.90;99.90
19019;DHT22;9642;50.842;4.348;2022-08-19T07:36:40;21.10;99.90
19019;DHT22;9642;50.842;4.348;2022-08-19T07:39:15;21.00;99.90
19019;DHT22;9642;50.842;4.348;2022-08-19T07:41:42;21.20;99.90
19019;DHT22;9642;50.842;4.348;2022-08-19T07:44:09;21.30;99.90
19019;DHT22;9642;50.842;4.348;2022-08-19T07:46:37;21.50;99.90
19019;DHT22;9642;50.842;4.348;2022-08-19T07:49:05;21.60;99.90
19019;DHT22;9642;50.842;4.348;2022-08-19T07:51:31;21.50;99.90
19019;DHT22;9642;50.842;4.348;2022-08-19T07:53:57;21.50;99.90
19019;DHT22;9642;50.842;4.348;2022-08-19T07:56:23;21.60;99.90
19019;DHT22;9642;50.842;4.348;2022-08-19T07:58:50;21.70;99.90
19019;DHT22;9642;50.842;4.348;2022-08-19T08:01:22;21.70;99.90
19019;DHT22;9642;50.842;4.348;2022-08-19T08:03:50;21.80;99.90
19019;DHT22;9642;50.842;4.348;2022-08-19T08:06:35;21.90;99.90
19019;DHT22;9642;50.842;4.348;2022-08-19T08:09:34;22.10;99.90
19019;DHT22;9642;50.842;4.348;2022-08-19T08:12:04;22.30;99.90
19019;DHT22;9642;50.842;4.348;2022-08-19T08:14:43;22.20;99.90
19019;DHT22;9642;50.842;4.348;2022-08-19T08:17:13;22.40;99.90
19019;DHT22;9642;50.842;4.348;2022-08-19T08:19:41;22.60;99.90
19019;DHT22;9642;50.842;4.348;2022-08-19T08:22:07;22.60;99.90
19019;DHT22;9642;50.842;4.348;2022-08-19T08:24:33;22.50;99.90
19019;DHT22;9642;50.842;4.348;2022-08-19T08:27:00;22.60;99.90
19019;DHT22;9642;50.842;4.348;2022-08-19T08:29:28;22.70;99.90
19019;DHT22;9642;50.842;4.348;2022-08-19T08:31:55;22.90;99.90
19019;DHT22;9642;50.842;4.348;2022-08-19T08:34:21;22.80;99.90
19019;DHT22;9642;50.842;4.348;2022-08-19T08:36:48;22.70;99.90
19019;DHT22;9642;50.842;4.348;2022-08-19T08:39:19;22.60;99.90
19019;DHT22;9642;50.842;4.348;2022-08-19T08:42:20;22.40;99.90
19019;DHT22;9642;50.842;4.348;2022-08-19T08:45:14;22.30;99.90
19019;DHT22;9642;50.842;4.348;2022-08-19T08:47:45;22.00;99.90
19019;DHT22;9642;50.842;4.348;2022-08-19T08:50:21;22.10;99.90
19019;DHT22;9642;50.842;4.348;2022-08-19T08:52:56;22.30;99.90
19019;DHT22;9642;50.842;4.348;2022-08-19T08:55:29;22.60;99.90
19019;DHT22;9642;50.842;4.348;2022-08-19T08:58:16;22.60;99.90
19019;DHT22;9642;50.842;4.348;2022-08-19T09:00:46;22.50;99.90
19019;DHT22;9642;50.842;4.348;2022-08-19T09:03:24;22.40;99.90
19019;DHT22;9642;50.842;4.348;2022-08-19T09:16:44;22.50;99.90
19019;DHT22;9642;50.842;4.348;2022-08-19T09:19:10;22.70;99.90
19019;DHT22;9642;50.842;4.348;2022-08-19T09:21:36;22.60;99.90
19019;DHT22;9642;50.842;4.348;2022-08-19T09:24:04;22.70;99.90
19019;DHT22;9642;50.842;4.348;2022-08-19T09:26:32;22.90;99.90
19019;DHT22;9642;50.842;4.348;2022-08-19T09:28:58;23.00;99.90
19019;DHT22;9642;50.842;4.348;2022-08-19T09:31:27;23.00;99.90
19019;DHT22;9642;50.842;4.348;2022-08-19T09:33:55;23.10;99.90
19019;DHT22;9642;50.842;4.348;2022-08-19T09:36:26;22.80;99.90
19019;DHT22;9642;50.842;4.348;2022-08-19T09:38:55;22.50;99.90
19019;DHT22;9642;50.842;4.348;2022-08-19T09:41:23;22.50;99.90
19019;DHT22;9642;50.842;4.348;2022-08-19T09:43:52;22.80;99.90
19019;DHT22;9642;50.842;4.348;2022-08-19T09:46:19;23.00;99.90
19019;DHT22;9642;50.842;4.348;2022-08-19T09:48:47;23.00;99.90
19019;DHT22;9642;50.842;4.348;2022-08-19T09:51:22;22.80;99.90
19019;DHT22;9642;50.842;4.348;2022-08-19T09:53:49;22.70;99.90
19019;DHT22;9642;50.842;4.348;2022-08-19T09:56:17;22.80;99.90
19019;DHT22;9642;50.842;4.348;2022-08-19T09:58:44;22.80;99.90
19019;DHT22;9642;50.842;4.348;2022-08-19T10:01:16;22.80;99.90
19019;DHT22;9642;50.842;4.348;2022-08-19T10:03:42;23.00;99.90
19019;DHT22;9642;50.842;4.348;2022-08-19T10:06:09;23.10;99.90
19019;DHT22;9642;50.842;4.348;2022-08-19T10:08:37;23.20;99.90
19019;DHT22;9642;50.842;4.348;2022-08-19T10:11:04;23.20;99.90
19019;DHT22;9642;50.842;4.348;2022-08-19T10:13:31;23.40;99.90
19019;DHT22;9642;50.842;4.348;2022-08-19T10:16:07;23.40;99.90
19019;DHT22;9642;50.842;4.348;2022-08-19T10:18:34;23.60;99.90
19019;DHT22;9642;50.842;4.348;2022-08-19T10:24:03;23.60;99.90
19019;DHT22;9642;50.842;4.348;2022-08-19T10:26:35;23.60;99.90
19019;DHT22;9642;50.842;4.348;2022-08-19T10:29:04;23.50;99.90
19019;DHT22;9642;50.842;4.348;2022-08-19T10:31:32;23.40;99.90
19019;DHT22;9642;50.842;4.348;2022-08-19T10:33:59;23.40;99.90
19019;DHT22;9642;50.842;4.348;2022-08-19T10:36:31;23.40;99.90
19019;DHT22;9642;50.842;4.348;2022-08-19T10:38:59;23.40;99.90
19019;DHT22;9642;50.842;4.348;2022-08-19T10:41:29;23.30;99.90
19019;DHT22;9642;50.842;4.348;2022-08-19T10:43:58;23.30;99.90
19019;DHT22;9642;50.842;4.348;2022-08-19T10:46:26;23.30;99.90
19019;DHT22;9642;50.842;4.348;2022-08-19T10:48:54;23.30;99.90
19019;DHT22;9642;50.842;4.348;2022-08-19T10:51:20;23.50;99.90
19019;DHT22;9642;50.842;4.348;2022-08-19T10:54:06;23.40;99.90
19019;DHT22;9642;50.842;4.348;2022-08-19T10:56:33;23.70;99.90
19019;DHT22;9642;50.842;4.348;2022-08-19T10:59:24;23.80;99.90
19019;DHT22;9642;50.842;4.348;2022-08-19T11:01:51;23.70;99.90
19019;DHT22;9642;50.842;4.348;2022-08-19T11:04:18;23.60;99.90
19019;DHT22;9642;50.842;4.348;2022-08-19T11:06:47;23.70;99.90
19019;DHT22;9642;50.842;4.348;2022-08-19T11:09:16;23.70;99.90
19019;DHT22;9642;50.842;4.348;2022-08-19T11:11:43;23.80;99.90
19019;DHT22;9642;50.842;4.348;2022-08-19T11:14:14;24.00;99.90
19019;DHT22;9642;50.842;4.348;2022-08-19T11:16:41;24.30;99.30
19019;DHT22;9642;50.842;4.348;2022-08-19T11:19:09;24.50;99.00
19019;DHT22;9642;50.842;4.348;2022-08-19T11:21:38;24.50;98.80
19019;DHT22;9642;50.842;4.348;2022-08-19T11:24:08;24.60;98.80
19019;DHT22;9642;50.842;4.348;2022-08-19T11:26:35;24.70;98.50
19019;DHT22;9642;50.842;4.348;2022-08-19T11:29:02;24.60;98.60
19019;DHT22;9642;50.842;4.348;2022-08-19T11:31:31;24.40;99.00
19019;DHT22;9642;50.842;4.348;2022-08-19T11:34:00;24.40;98.90
19019;DHT22;9642;50.842;4.348;2022-08-19T11:36:28;24.20;99.20
19019;DHT22;9642;50.842;4.348;2022-08-19T11:38:54;24.00;99.60
19019;DHT22;9642;50.842;4.348;2022-08-19T11:41:21;24.00;99.60
19019;DHT22;9642;50.842;4.348;2022-08-19T11:43:50;23.80;99.90
19019;DHT22;9642;50.842;4.348;2022-08-19T11:46:18;23.90;99.90
19019;DHT22;9642;50.842;4.348;2022-08-19T11:48:44;24.10;99.70
19019;DHT22;9642;50.842;4.348;2022-08-19T11:51:13;24.20;99.40
19019;DHT22;9642;50.842;4.348;2022-08-19T11:53:39;24.50;98.90
19019;DHT22;9642;50.842;4.348;2022-08-19T11:56:07;24.60;98.30
19019;DHT22;9642;50.842;4.348;2022-08-19T11:58:34;24.40;98.90
19019;DHT22;9642;50.842;4.348;2022-08-19T12:01:09;24.80;98.60
19019;DHT22;9642;50.842;4.348;2022-08-19T12:03:37;25.20;97.30
19019;DHT22;9642;50.842;4.348;2022-08-19T12:06:09;25.20;97.40
19019;DHT22;9642;50.842;4.348;2022-08-19T12:08:35;25.60;96.70
19019;DHT22;9642;50.842;4.348;2022-08-19T12:11:01;25.60;96.60
19019;DHT22;9642;50.842;4.348;2022-08-19T12:13:30;26.00;96.10
19019;DHT22;9642;50.842;4.348;2022-08-19T12:15:56;26.10;95.60
19019;DHT22;9642;50.842;4.348;2022-08-19T12:18:23;26.50;94.90
19019;DHT22;9642;50.842;4.348;2022-08-19T12:20:53;26.50;94.80
19019;DHT22;9642;50.842;4.348;2022-08-19T12:23:20;26.40;95.00
19019;DHT22;9642;50.842;4.348;2022-08-19T12:25:48;26.30;95.30
19019;DHT22;9642;50.842;4.348;2022-08-19T12:28:18;26.10;95.60
19019;DHT22;9642;50.842;4.348;2022-08-19T12:30:44;26.20;95.40
19019;DHT22;9642;50.842;4.348;2022-08-19T12:33:11;26.00;95.30
19019;DHT22;9642;50.842;4.348;2022-08-19T12:35:43;25.80;95.70
19019;DHT22;9642;50.842;4.348;2022-08-19T12:38:11;25.80;95.90
19019;DHT22;9642;50.842;4.348;2022-08-19T12:40:37;25.60;96.10
19019;DHT22;9642;50.842;4.348;2022-08-19T12:43:06;25.40;96.40
19019;DHT22;9642;50.842;4.348;2022-08-19T12:45:32;25.80;96.30
19019;DHT22;9642;50.842;4.348;2022-08-19T12:47:58;25.70;95.80
19019;DHT22;9642;50.842;4.348;2022-08-19T12:50:24;25.70;95.90
19019;DHT22;9642;50.842;4.348;2022-08-19T12:52:50;25.90;95.40
19019;DHT22;9642;50.842;4.348;2022-08-19T12:55:17;25.80;95.50
19019;DHT22;9642;50.842;4.348;2022-08-19T12:57:44;25.70;95.90
19019;DHT22;9642;50.842;4.348;2022-08-19T13:00:13;25.80;95.90
19019;DHT22;9642;50.842;4.348;2022-08-19T13:02:43;26.00;95.40
19019;DHT22;9642;50.842;4.348;2022-08-19T13:05:14;26.50;94.90
19019;DHT22;9642;50.842;4.348;2022-08-19T13:07:42;26.60;94.10
19019;DHT22;9642;50.842;4.348;2022-08-19T13:10:11;26.70;94.20
19019;DHT22;9642;50.842;4.348;2022-08-19T13:12:38;26.60;94.20
19019;DHT22;9642;50.842;4.348;2022-08-19T13:15:05;26.40;94.60
19019;DHT22;9642;50.842;4.348;2022-08-19T13:17:30;26.60;94.30
19019;DHT22;9642;50.842;4.348;2022-08-19T13:19:59;26.40;94.80
19019;DHT22;9642;50.842;4.348;2022-08-19T13:22:25;26.00;95.00
19019;DHT22;9642;50.842;4.348;2022-08-19T13:24:51;25.80;95.70
19019;DHT22;9642;50.842;4.348;2022-08-19T13:27:17;25.90;95.40
19019;DHT22;9642;50.842;4.348;2022-08-19T13:29:43;25.90;95.40
19019;DHT22;9642;50.842;4.348;2022-08-19T13:32:29;26.00;95.60
19019;DHT22;9642;50.842;4.348;2022-08-19T13:35:14;26.30;95.00
19019;DHT22;9642;50.842;4.348;2022-08-19T13:37:40;26.50;94.40
19019;DHT22;9642;50.842;4.348;2022-08-19T13:40:14;26.60;94.50
19019;DHT22;9642;50.842;4.348;2022-08-19T13:42:43;26.70;94.10
19019;DHT22;9642;50.842;4.348;2022-08-19T13:45:10;26.70;94.00
19019;DHT22;9642;50.842;4.348;2022-08-19T13:47:37;26.70;94.10
19019;DHT22;9642;50.842;4.348;2022-08-19T13:50:13;26.70;94.10
19019;DHT22;9642;50.842;4.348;2022-08-19T13:52:40;26.30;94.50
19019;DHT22;9642;50.842;4.348;2022-08-19T13:55:07;26.10;94.90
19019;DHT22;9642;50.842;4.348;2022-08-19T13:57:34;25.70;95.60
19019;DHT22;9642;50.842;4.348;2022-08-19T14:00:01;25.60;95.90
19019;DHT22;9642;50.842;4.348;2022-08-19T14:02:30;25.60;96.10
19019;DHT22;9642;50.842;4.348;2022-08-19T14:04:56;25.60;96.40
19019;DHT22;9642;50.842;4.348;2022-08-19T14:07:22;25.60;96.30
19019;DHT22;9642;50.842;4.348;2022-08-19T14:09:50;25.60;96.50
19019;DHT22;9642;50.842;4.348;2022-08-19T14:12:20;25.40;97.80
19019;DHT22;9642;50.842;4.348;2022-08-19T14:14:46;25.10;98.70
19019;DHT22;9642;50.842;4.348;2022-08-19T14:17:12;24.90;99.90
19019;DHT22;9642;50.842;4.348;2022-08-19T14:19:38;24.70;99.90
19019;DHT22;9642;50.842;4.348;2022-08-19T14:22:04;24.60;99.90
19019;DHT22;9642;50.842;4.348;2022-08-19T14:24:31;24.70;99.90
19019;DHT22;9642;50.842;4.348;2022-08-19T14:26:59;24.80;99.90
19019;DHT22;9642;50.842;4.348;2022-08-19T14:29:25;24.90;99.90
19019;DHT22;9642;50.842;4.348;2022-08-19T14:31:54;24.80;99.60
19019;DHT22;9642;50.842;4.348;2022-08-19T14:34:22;24.80;99.80
19019;DHT22;9642;50.842;4.348;2022-08-19T14:36:48;24.80;99.70
19019;DHT22;9642;50.842;4.348;2022-08-19T14:39:14;24.50;99.80
19019;DHT22;9642;50.842;4.348;2022-08-19T14:41:41;24.40;99.90
19019;DHT22;9642;50.842;4.348;2022-08-19T14:44:11;24.40;99.90
19019;DHT22;9642;50.842;4.348;2022-08-19T14:46:38;24.10;99.90
19019;DHT22;9642;50.842;4.348;2022-08-19T14:49:05;23.70;99.90
19019;DHT22;9642;50.842;4.348;2022-08-19T14:51:31;23.50;99.90
19019;DHT22;9642;50.842;4.348;2022-08-19T14:53:57;23.60;99.90
19019;DHT22;9642;50.842;4.348;2022-08-19T14:56:29;23.80;99.90
19019;DHT22;9642;50.842;4.348;2022-08-19T14:58:56;24.00;99.90
19019;DHT22;9642;50.842;4.348;2022-08-19T15:01:28;24.20;99.90
19019;DHT22;9642;50.842;4.348;2022-08-19T15:03:54;24.40;99.90
19019;DHT22;9642;50.842;4.348;2022-08-19T15:06:24;24.50;99.90
19019;DHT22;9642;50.842;4.348;2022-08-19T15:08:50;24.60;99.90
19019;DHT22;9642;50.842;4.348;2022-08-19T15:11:22;24.60;99.90
19019;DHT22;9642;50.842;4.348;2022-08-19T15:13:48;24.80;99.90
19019;DHT22;9642;50.842;4.348;2022-08-19T15:16:16;24.80;99.90
19019;DHT22;9642;50.842;4.348;2022-08-19T15:18:43;25.00;99.60
19019;DHT22;9642;50.842;4.348;2022-08-19T15:21:14;24.90;99.80
19019;DHT22;9642;50.842;4.348;2022-08-19T15:23:42;25.20;99.40
19019;DHT22;9642;50.842;4.348;2022-08-19T15:26:08;25.20;98.70
19019;DHT22;9642;50.842;4.348;2022-08-19T15:28:36;24.90;99.00
19019;DHT22;9642;50.842;4.348;2022-08-19T15:31:10;24.80;99.60
19019;DHT22;9642;50.842;4.348;2022-08-19T15:33:40;24.80;99.90
19019;DHT22;9642;50.842;4.348;2022-08-19T15:36:10;25.10;99.40
19019;DHT22;9642;50.842;4.348;2022-08-19T15:38:38;25.30;98.90
19019;DHT22;9642;50.842;4.348;2022-08-19T15:41:05;25.10;98.90
19019;DHT22;9642;50.842;4.348;2022-08-19T15:43:55;24.80;99.50
19019;DHT22;9642;50.842;4.348;2022-08-19T15:46:24;24.80;99.40
19019;DHT22;9642;50.842;4.348;2022-08-19T15:48:53;24.90;99.40
19019;DHT22;9642;50.842;4.348;2022-08-19T15:51:20;25.00;99.20
19019;DHT22;9642;50.842;4.348;2022-08-19T15:53:47;25.00;99.40
19019;DHT22;9642;50.842;4.348;2022-08-19T15:56:14;24.80;99.90
19019;DHT22;9642;50.842;4.348;2022-08-19T15:58:40;24.70;99.90
19019;DHT22;9642;50.842;4.348;2022-08-19T16:01:25;24.60;99.90
19019;DHT22;9642;50.842;4.348;2022-08-19T16:03:59;24.40;99.90
19019;DHT22;9642;50.842;4.348;2022-08-19T16:06:46;24.10;99.90
19019;DHT22;9642;50.842;4.348;2022-08-19T16:09:14;24.00;99.90
19019;DHT22;9642;50.842;4.348;2022-08-19T16:11:40;23.80;99.90
19019;DHT22;9642;50.842;4.348;2022-08-19T16:14:07;23.70;99.90